createdAt,value
2022-11-05T00:00:28.094Z,0.00
2022-11-05T00:01:23.259Z,0.00
2022-11-05T00:02:18.525Z,0.00
2022-11-05T00:03:14.456Z,0.00
2022-11-05T00:04:09.649Z,0.00
2022-11-05T00:05:05.100Z,0.00
2022-11-05T00:06:00.259Z,0.00
2022-11-05T00:06:55.759Z,0.00
2022-11-05T00:07:50.840Z,0.00
2022-11-05T00:08:45.939Z,0.00
2022-11-05T00:09:41.740Z,0.00
2022-11-05T00:10:37.003Z,0.00
2022-11-05T00:11:32.906Z,0.00
2022-11-05T00:12:27.946Z,0.00
2022-11-05T00:13:23.305Z,0.00
2022-11-05T00:14:19.110Z,0.00
2022-11-05T00:15:14.345Z,0.00
2022-11-05T00:16:09.791Z,0.00
2022-11-05T00:17:05.733Z,0.00
2022-11-05T00:18:00.984Z,0.00
2022-11-05T00:18:56.797Z,0.00
2022-11-05T00:19:51.993Z,0.00
2022-11-05T00:20:47.272Z,0.00
2022-11-05T00:21:43.261Z,0.00
2022-11-05T00:22:38.053Z,0.00
2022-11-05T00:23:33.150Z,0.00
2022-11-05T00:24:28.370Z,0.00
2022-11-05T00:25:23.582Z,0.00
2022-11-05T00:26:18.731Z,0.00
2022-11-05T00:27:13.807Z,0.00
2022-11-05T00:28:10.140Z,0.00
2022-11-05T00:29:05.360Z,0.00
2022-11-05T00:30:00.581Z,0.00
2022-11-05T00:30:56.379Z,0.00
2022-11-05T00:31:51.630Z,0.00
2022-11-05T00:32:47.031Z,0.00
2022-11-05T00:33:41.870Z,0.00
2022-11-05T00:34:37.082Z,0.00
2022-11-05T00:35:32.415Z,0.00
2022-11-05T00:36:28.489Z,0.00
2022-11-05T00:37:23.721Z,0.00
2022-11-05T00:38:18.965Z,0.00
2022-11-05T00:39:18.465Z,0.00
2022-11-05T00:40:13.417Z,0.00
2022-11-05T00:41:08.655Z,0.00
2022-11-05T00:42:03.889Z,0.00
2022-11-05T00:42:58.999Z,0.00
2022-11-05T00:43:54.062Z,0.00
2022-11-05T00:44:49.062Z,0.00
2022-11-05T00:45:44.143Z,0.00
2022-11-05T00:46:39.235Z,0.00
2022-11-05T00:47:34.290Z,0.00
2022-11-05T00:48:30.060Z,0.00
2022-11-05T00:49:24.507Z,0.00
2022-11-05T00:50:19.753Z,0.00
2022-11-05T00:51:14.833Z,0.00
2022-11-05T00:52:09.932Z,0.00
2022-11-05T00:53:05.211Z,0.00
2022-11-05T00:54:00.136Z,0.00
2022-11-05T00:54:55.261Z,0.00
2022-11-05T00:55:50.298Z,0.00
2022-11-05T00:56:45.409Z,0.00
2022-11-05T00:57:40.608Z,0.00
2022-11-05T00:58:35.857Z,0.00
2022-11-05T00:59:30.875Z,0.00
2022-11-05T01:00:25.976Z,0.00
2022-11-05T01:01:21.146Z,0.00
2022-11-05T01:02:16.192Z,0.00
2022-11-05T01:03:11.438Z,0.00
2022-11-05T01:04:06.285Z,0.00
2022-11-05T01:05:01.342Z,0.00
2022-11-05T01:05:56.424Z,0.00
2022-11-05T01:06:51.503Z,0.00
2022-11-05T01:07:46.552Z,0.00
2022-11-05T01:08:41.902Z,0.00
2022-11-05T01:09:36.731Z,0.00
2022-11-05T01:10:31.822Z,0.00
2022-11-05T01:11:28.409Z,0.00
2022-11-05T01:12:23.617Z,0.00
2022-11-05T01:13:19.125Z,0.00
2022-11-05T01:14:13.932Z,0.00
2022-11-05T01:15:08.998Z,0.00
2022-11-05T01:16:08.395Z,0.00
2022-11-05T01:17:03.476Z,0.00
2022-11-05T01:17:58.676Z,0.00
2022-11-05T01:18:53.919Z,0.00
2022-11-05T01:19:49.460Z,0.00
2022-11-05T01:20:44.392Z,0.00
2022-11-05T01:21:39.490Z,0.00
2022-11-05T01:22:34.668Z,0.00
2022-11-05T01:23:29.912Z,0.00
2022-11-05T01:24:25.028Z,0.00
2022-11-05T01:25:20.117Z,0.00
2022-11-05T01:26:15.286Z,0.00
2022-11-05T01:27:10.346Z,0.00
2022-11-05T01:28:05.536Z,0.00
2022-11-05T01:29:00.852Z,0.00
2022-11-05T01:29:55.665Z,0.00
2022-11-05T01:30:50.819Z,0.00
2022-11-05T01:31:49.138Z,0.00
2022-11-05T01:32:44.194Z,0.00
2022-11-05T01:33:39.385Z,0.00
2022-11-05T01:34:34.653Z,0.00
2022-11-05T01:35:29.733Z,0.00
2022-11-05T01:36:25.001Z,0.00
2022-11-05T01:37:20.094Z,0.00
2022-11-05T01:38:15.264Z,0.00
2022-11-05T01:39:10.713Z,0.00
2022-11-05T01:40:05.660Z,0.00
2022-11-05T01:41:00.893Z,0.00
2022-11-05T01:41:56.348Z,0.00
2022-11-05T01:42:51.152Z,0.00
2022-11-05T01:43:46.216Z,0.00
2022-11-05T01:44:41.303Z,0.00
2022-11-05T01:45:36.384Z,0.00
2022-11-05T01:46:31.572Z,0.00
2022-11-05T01:47:26.899Z,0.00
2022-11-05T01:48:21.720Z,0.00
2022-11-05T01:49:17.087Z,0.00
2022-11-05T01:50:11.858Z,0.00
2022-11-05T01:51:07.052Z,0.00
2022-11-05T01:52:02.177Z,0.00
2022-11-05T01:52:57.419Z,0.00
2022-11-05T01:53:52.721Z,0.00
2022-11-05T01:54:50.387Z,0.00
2022-11-05T01:55:45.435Z,0.00
2022-11-05T01:56:40.578Z,0.00
2022-11-05T01:57:35.524Z,0.00
2022-11-05T01:58:30.712Z,0.00
2022-11-05T01:59:25.623Z,0.00
2022-11-05T02:00:20.837Z,0.00
2022-11-05T02:01:15.834Z,0.00
2022-11-05T02:02:10.954Z,0.00
2022-11-05T02:03:06.145Z,0.00
2022-11-05T02:04:01.438Z,0.00
2022-11-05T02:04:56.407Z,0.00
2022-11-05T02:05:57.176Z,0.00
2022-11-05T02:06:52.360Z,0.00
2022-11-05T02:07:47.743Z,0.00
2022-11-05T02:08:43.422Z,0.00
2022-11-05T02:09:38.815Z,0.00
2022-11-05T02:10:33.766Z,0.00
2022-11-05T02:11:30.230Z,0.00
2022-11-05T02:12:25.470Z,0.00
2022-11-05T02:13:21.260Z,0.00
2022-11-05T02:14:16.732Z,0.00
2022-11-05T02:15:11.733Z,0.00
2022-11-05T02:16:07.488Z,0.00
2022-11-05T02:17:02.679Z,0.00
2022-11-05T02:17:58.465Z,0.00
2022-11-05T02:18:53.653Z,0.00
2022-11-05T02:19:49.020Z,0.00
2022-11-05T02:20:49.397Z,0.00
2022-11-05T02:21:40.839Z,0.00
2022-11-05T02:22:34.993Z,0.00
2022-11-05T02:23:29.972Z,0.00
2022-11-05T02:24:25.118Z,0.00
2022-11-05T02:25:20.100Z,0.00
2022-11-05T02:26:15.178Z,0.00
2022-11-05T02:27:10.271Z,0.00
2022-11-05T02:28:05.278Z,0.00
2022-11-05T02:29:00.361Z,0.00
2022-11-05T02:30:00.900Z,0.00
2022-11-05T02:30:55.722Z,0.00
2022-11-05T02:31:50.945Z,0.00
2022-11-05T02:32:46.753Z,0.00
2022-11-05T02:33:42.013Z,0.00
2022-11-05T02:34:37.208Z,0.00
2022-11-05T02:35:33.575Z,0.00
2022-11-05T02:36:28.675Z,0.00
2022-11-05T02:37:24.467Z,0.00
2022-11-05T02:38:19.642Z,0.00
2022-11-05T02:39:15.007Z,0.00
2022-11-05T02:40:10.804Z,0.00
2022-11-05T02:41:06.482Z,0.00
2022-11-05T02:42:05.042Z,0.00
2022-11-05T02:42:56.930Z,0.00
2022-11-05T02:43:52.607Z,0.00
2022-11-05T02:44:47.825Z,0.00
2022-11-05T02:45:43.848Z,0.00
2022-11-05T02:46:38.845Z,0.00
2022-11-05T02:47:33.936Z,0.00
2022-11-05T02:48:29.736Z,0.00
2022-11-05T02:49:24.955Z,0.00
2022-11-05T02:50:20.293Z,0.00
2022-11-05T02:51:16.571Z,0.00
2022-11-05T02:52:11.522Z,0.00
2022-11-05T02:53:07.476Z,0.00
2022-11-05T02:54:03.210Z,0.00
2022-11-05T02:54:57.892Z,0.00
2022-11-05T02:55:53.724Z,0.00
2022-11-05T02:56:48.965Z,0.00
2022-11-05T02:57:44.761Z,0.00
2022-11-05T02:58:39.951Z,0.00
2022-11-05T02:59:35.315Z,0.00
2022-11-05T03:00:30.994Z,0.00
2022-11-05T03:01:26.366Z,0.00
2022-11-05T03:02:21.470Z,0.00
2022-11-05T03:03:17.829Z,0.00
2022-11-05T03:04:13.095Z,0.00
2022-11-05T03:05:08.960Z,0.00
2022-11-05T03:06:04.102Z,0.00
2022-11-05T03:06:59.172Z,0.00
2022-11-05T03:07:54.385Z,0.00
2022-11-05T03:08:50.308Z,0.00
2022-11-05T03:09:45.567Z,0.00
2022-11-05T03:10:40.781Z,0.00
2022-11-05T03:11:36.742Z,0.00
2022-11-05T03:12:31.694Z,0.00
2022-11-05T03:13:27.065Z,0.00
2022-11-05T03:14:23.237Z,0.00
2022-11-05T03:15:18.964Z,0.00
2022-11-05T03:16:14.512Z,0.00
2022-11-05T03:17:09.543Z,0.00
2022-11-05T03:18:04.655Z,0.00
2022-11-05T03:19:00.434Z,0.00
2022-11-05T03:19:55.560Z,0.00
2022-11-05T03:20:51.483Z,0.00
2022-11-05T03:21:46.436Z,0.00
2022-11-05T03:22:41.559Z,0.00
2022-11-05T03:23:36.739Z,0.00
2022-11-05T03:24:31.902Z,0.00
2022-11-05T03:25:27.012Z,0.00
2022-11-05T03:26:22.079Z,0.00
2022-11-05T03:27:17.209Z,0.00
2022-11-05T03:28:16.616Z,0.00
2022-11-05T03:29:11.698Z,0.00
2022-11-05T03:30:06.835Z,0.00
2022-11-05T03:31:02.025Z,0.00
2022-11-05T03:31:58.361Z,0.00
2022-11-05T03:32:53.554Z,0.00
2022-11-05T03:33:48.799Z,0.00
2022-11-05T03:34:48.245Z,0.00
2022-11-05T03:35:43.141Z,0.00
2022-11-05T03:36:38.259Z,0.00
2022-11-05T03:37:33.376Z,0.00
2022-11-05T03:38:28.454Z,0.00
2022-11-05T03:39:23.512Z,0.00
2022-11-05T03:40:18.555Z,0.00
2022-11-05T03:41:13.536Z,0.00
2022-11-05T03:42:08.845Z,0.00
2022-11-05T03:43:03.631Z,0.00
2022-11-05T03:43:58.739Z,0.00
2022-11-05T03:44:53.839Z,0.00
2022-11-05T03:45:49.030Z,0.00
2022-11-05T03:46:44.800Z,0.00
2022-11-05T03:47:39.209Z,0.00
2022-11-05T03:48:34.305Z,0.00
2022-11-05T03:49:29.419Z,0.00
2022-11-05T03:50:24.321Z,0.00
2022-11-05T03:51:19.438Z,0.00
2022-11-05T03:52:14.500Z,0.00
2022-11-05T03:53:09.819Z,0.00
2022-11-05T03:54:04.568Z,0.00
2022-11-05T03:54:59.669Z,0.00
2022-11-05T03:55:54.872Z,0.00
2022-11-05T03:56:49.942Z,0.00
2022-11-05T03:57:44.950Z,0.00
2022-11-05T03:58:39.895Z,0.00
2022-11-05T03:59:35.110Z,0.00
2022-11-05T04:00:30.496Z,0.00
2022-11-05T04:01:25.563Z,0.00
2022-11-05T04:02:20.863Z,0.00
2022-11-05T04:03:15.514Z,0.00
2022-11-05T04:04:10.984Z,0.00
2022-11-05T04:05:05.617Z,0.00
2022-11-05T04:06:00.754Z,0.00
2022-11-05T04:06:55.945Z,0.00
2022-11-05T04:07:51.052Z,0.00
2022-11-05T04:08:46.339Z,0.00
2022-11-05T04:09:41.288Z,0.00
2022-11-05T04:10:36.283Z,0.00
2022-11-05T04:11:31.370Z,0.00
2022-11-05T04:12:26.362Z,0.00
2022-11-05T04:13:21.427Z,0.00
2022-11-05T04:14:16.518Z,0.00
2022-11-05T04:15:11.606Z,0.00
2022-11-05T04:16:06.703Z,0.00
2022-11-05T04:17:02.780Z,0.00
2022-11-05T04:17:57.948Z,0.00
2022-11-05T04:18:53.146Z,0.00
2022-11-05T04:19:48.262Z,0.00
2022-11-05T04:20:43.744Z,0.00
2022-11-05T04:21:38.994Z,0.00
2022-11-05T04:22:34.105Z,0.00
2022-11-05T04:23:29.430Z,0.00
2022-11-05T04:24:24.509Z,0.00
2022-11-05T04:25:19.650Z,0.00
2022-11-05T04:26:14.692Z,0.00
2022-11-05T04:27:09.977Z,0.00
2022-11-05T04:28:05.042Z,0.00
2022-11-05T04:29:03.868Z,0.00
2022-11-05T04:29:56.253Z,0.00
2022-11-05T04:30:50.302Z,0.00
2022-11-05T04:31:45.243Z,0.00
2022-11-05T04:32:40.717Z,0.00
2022-11-05T04:33:35.631Z,0.00
2022-11-05T04:34:30.612Z,0.00
2022-11-05T04:35:25.680Z,0.00
2022-11-05T04:36:20.795Z,0.00
2022-11-05T04:37:15.799Z,0.00
2022-11-05T04:38:10.882Z,0.00
2022-11-05T04:39:06.159Z,0.00
2022-11-05T04:40:01.172Z,0.00
2022-11-05T04:40:56.260Z,0.00
2022-11-05T04:41:51.339Z,0.00
2022-11-05T04:42:46.439Z,0.00
2022-11-05T04:43:41.654Z,0.00
2022-11-05T04:44:36.672Z,0.00
2022-11-05T04:45:33.183Z,0.00
2022-11-05T04:46:27.963Z,0.00
2022-11-05T04:47:23.115Z,0.00
2022-11-05T04:48:18.497Z,0.00
2022-11-05T04:49:13.240Z,0.00
2022-11-05T04:50:08.329Z,0.00
2022-11-05T04:51:03.423Z,0.00
2022-11-05T04:51:58.514Z,0.00
2022-11-05T04:52:53.660Z,0.00
2022-11-05T04:53:48.722Z,0.00
2022-11-05T04:54:43.738Z,0.00
2022-11-05T04:55:38.808Z,0.00
2022-11-05T04:56:34.251Z,0.00
2022-11-05T04:57:33.405Z,0.00
2022-11-05T04:58:28.481Z,0.00
2022-11-05T04:59:23.730Z,0.00
2022-11-05T05:00:18.831Z,0.00
2022-11-05T05:01:14.052Z,0.00
2022-11-05T05:02:09.084Z,0.00
2022-11-05T05:03:04.072Z,0.00
2022-11-05T05:03:59.074Z,0.00
2022-11-05T05:04:54.160Z,0.00
2022-11-05T05:05:51.846Z,0.00
2022-11-05T05:06:44.353Z,0.00
2022-11-05T05:07:39.569Z,0.00
2022-11-05T05:08:35.346Z,0.00
2022-11-05T05:09:30.884Z,0.00
2022-11-05T05:10:25.844Z,0.00
2022-11-05T05:11:21.640Z,0.00
2022-11-05T05:12:16.889Z,0.00
2022-11-05T05:13:13.117Z,0.00
2022-11-05T05:14:07.874Z,0.00
2022-11-05T05:15:03.115Z,0.00
2022-11-05T05:15:59.184Z,0.00
2022-11-05T05:16:54.415Z,0.00
2022-11-05T05:17:49.784Z,0.00
2022-11-05T05:18:46.537Z,0.00
2022-11-05T05:19:41.203Z,0.00
2022-11-05T05:20:36.998Z,0.00
2022-11-05T05:21:32.181Z,0.00
2022-11-05T05:22:27.540Z,0.00
2022-11-05T05:23:23.525Z,0.00
2022-11-05T05:24:18.351Z,0.00
2022-11-05T05:25:14.169Z,0.00
2022-11-05T05:26:09.229Z,0.00
2022-11-05T05:27:04.866Z,0.00
2022-11-05T05:28:00.258Z,0.00
2022-11-05T05:28:55.532Z,0.00
2022-11-05T05:29:50.674Z,0.00
2022-11-05T05:30:47.107Z,0.00
2022-11-05T05:31:42.381Z,0.00
2022-11-05T05:32:38.183Z,0.00
2022-11-05T05:33:33.576Z,0.00
2022-11-05T05:34:28.556Z,0.00
2022-11-05T05:35:24.352Z,0.00
2022-11-05T05:36:19.511Z,0.00
2022-11-05T05:37:14.584Z,0.00
2022-11-05T05:38:09.818Z,0.00
2022-11-05T05:39:04.935Z,0.00
2022-11-05T05:40:01.271Z,1.00
2022-11-05T05:40:56.525Z,1.00
2022-11-05T05:41:52.315Z,1.00
2022-11-05T05:42:47.511Z,1.00
2022-11-05T05:43:42.669Z,1.00
2022-11-05T05:44:38.515Z,2.00
2022-11-05T05:45:33.644Z,1.00
2022-11-05T05:46:29.452Z,2.00
2022-11-05T05:47:24.515Z,2.00
2022-11-05T05:48:19.784Z,3.00
2022-11-05T05:49:15.499Z,3.00
2022-11-05T05:50:10.622Z,3.00
2022-11-05T05:51:05.850Z,5.00
2022-11-05T05:52:02.211Z,6.00
2022-11-05T05:52:57.299Z,6.00
2022-11-05T05:53:52.522Z,8.00
2022-11-05T05:54:47.632Z,10.00
2022-11-05T05:55:45.618Z,12.00
2022-11-05T05:56:40.893Z,16.00
2022-11-05T05:57:36.107Z,19.00
2022-11-05T05:58:31.819Z,22.00
2022-11-05T05:59:27.048Z,27.00
2022-11-05T06:00:22.191Z,30.00
2022-11-05T06:01:19.278Z,38.00
2022-11-05T06:02:12.489Z,39.00
2022-11-05T06:03:07.868Z,44.00
2022-11-05T06:04:02.576Z,45.00
2022-11-05T06:04:57.823Z,50.00
2022-11-05T06:05:52.734Z,53.00
2022-11-05T06:06:47.885Z,54.00
2022-11-05T06:07:42.906Z,61.00
2022-11-05T06:08:38.062Z,63.00
2022-11-05T06:09:33.063Z,70.00
2022-11-05T06:10:28.292Z,73.00
2022-11-05T06:11:23.083Z,82.00
2022-11-05T06:12:18.081Z,87.00
2022-11-05T06:13:13.228Z,97.00
2022-11-05T06:14:10.559Z,105.00
2022-11-05T06:15:05.671Z,112.00
2022-11-05T06:16:00.861Z,120.00
2022-11-05T06:16:56.048Z,128.00
2022-11-05T06:17:51.233Z,146.00
2022-11-05T06:18:46.289Z,153.00
2022-11-05T06:19:41.369Z,168.00
2022-11-05T06:20:36.641Z,183.00
2022-11-05T06:21:31.500Z,202.00
2022-11-05T06:22:26.597Z,226.00
2022-11-05T06:23:21.685Z,234.00
2022-11-05T06:24:16.688Z,270.00
2022-11-05T06:25:12.087Z,285.00
2022-11-05T06:26:07.068Z,308.00
2022-11-05T06:27:01.967Z,316.00
2022-11-05T06:27:57.149Z,325.00
2022-11-05T06:28:51.999Z,288.00
2022-11-05T06:29:47.120Z,317.00
2022-11-05T06:30:42.246Z,296.00
2022-11-05T06:31:37.302Z,310.00
2022-11-05T06:32:32.286Z,314.00
2022-11-05T06:33:27.309Z,325.00
2022-11-05T06:34:22.408Z,347.00
2022-11-05T06:35:17.533Z,347.00
2022-11-05T06:36:12.670Z,365.00
2022-11-05T06:37:07.941Z,400.00
2022-11-05T06:38:03.232Z,404.00
2022-11-05T06:38:58.497Z,446.00
2022-11-05T06:39:53.722Z,469.00
2022-11-05T06:40:48.986Z,506.00
2022-11-05T06:42:16.635Z,540.00
2022-11-05T06:42:40.580Z,562.00
2022-11-05T06:43:34.910Z,621.00
2022-11-05T06:44:30.178Z,633.00
2022-11-05T06:45:25.455Z,671.00
2022-11-05T06:46:20.878Z,680.00
2022-11-05T06:47:16.128Z,710.00
2022-11-05T06:48:11.252Z,715.00
2022-11-05T06:49:06.506Z,749.00
2022-11-05T06:50:01.819Z,783.00
2022-11-05T06:50:57.029Z,771.00
2022-11-05T06:51:52.479Z,785.00
2022-11-05T06:52:47.594Z,793.00
2022-11-05T06:53:42.867Z,798.00
2022-11-05T06:54:38.139Z,793.00
2022-11-05T06:55:33.614Z,835.00
2022-11-05T06:56:28.869Z,817.00
2022-11-05T06:57:24.153Z,864.00
2022-11-05T06:58:19.406Z,877.00
2022-11-05T06:59:14.785Z,879.00
2022-11-05T07:00:09.980Z,855.00
2022-11-05T07:01:05.123Z,814.00
2022-11-05T07:02:00.526Z,855.00
2022-11-05T07:02:55.396Z,827.00
2022-11-05T07:03:50.622Z,809.00
2022-11-05T07:04:45.672Z,771.00
2022-11-05T07:05:40.776Z,803.00
2022-11-05T07:06:37.111Z,808.00
2022-11-05T07:07:30.929Z,823.00
2022-11-05T07:08:25.908Z,828.00
2022-11-05T07:09:20.897Z,835.00
2022-11-05T07:10:16.028Z,846.00
2022-11-05T07:11:11.095Z,897.00
2022-11-05T07:12:06.384Z,908.00
2022-11-05T07:13:05.119Z,948.00
2022-11-05T07:13:59.167Z,960.00
2022-11-05T07:14:53.200Z,981.00
2022-11-05T07:15:48.270Z,1008.00
2022-11-05T07:16:43.480Z,1053.00
2022-11-05T07:17:38.245Z,1026.00
2022-11-05T07:18:33.283Z,1108.00
2022-11-05T07:19:28.349Z,1159.00
2022-11-05T07:20:23.528Z,1206.00
2022-11-05T07:21:18.461Z,1248.00
2022-11-05T07:22:14.665Z,1310.00
2022-11-05T07:23:08.908Z,1366.00
2022-11-05T07:24:03.503Z,1369.00
2022-11-05T07:24:58.567Z,1477.00
2022-11-05T07:25:53.909Z,1523.00
2022-11-05T07:26:49.200Z,1606.00
2022-11-05T07:27:44.521Z,1700.00
2022-11-05T07:28:39.903Z,1794.00
2022-11-05T07:29:35.206Z,1939.00
2022-11-05T07:30:30.664Z,2062.00
2022-11-05T07:31:25.898Z,2235.00
2022-11-05T07:32:21.221Z,2273.00
2022-11-05T07:33:17.093Z,2428.00
2022-11-05T07:34:12.178Z,2605.00
2022-11-05T07:35:07.505Z,2679.00
2022-11-05T07:36:02.888Z,2727.00
2022-11-05T07:36:58.277Z,2724.00
2022-11-05T07:37:53.675Z,2800.00
2022-11-05T07:38:49.036Z,2825.00
2022-11-05T07:39:44.409Z,2868.00
2022-11-05T07:40:40.298Z,2887.00
2022-11-05T07:41:35.108Z,2911.00
2022-11-05T07:42:30.455Z,2927.00
2022-11-05T07:43:25.856Z,2856.00
2022-11-05T07:44:21.002Z,2860.00
2022-11-05T07:45:16.545Z,2862.00
2022-11-05T07:46:13.805Z,2919.00
2022-11-05T07:47:06.009Z,3008.00
2022-11-05T07:48:01.347Z,3068.00
2022-11-05T07:48:56.314Z,3284.00
2022-11-05T07:49:51.435Z,3556.00
2022-11-05T07:50:47.034Z,3940.00
2022-11-05T07:51:43.372Z,4146.00
2022-11-05T07:52:38.459Z,4542.00
2022-11-05T07:53:33.483Z,4796.00
2022-11-05T07:54:28.448Z,5164.00
2022-11-05T07:55:23.551Z,5409.00
2022-11-05T07:56:18.640Z,5685.00
2022-11-05T07:57:13.882Z,6071.00
2022-11-05T07:58:09.173Z,6635.00
2022-11-05T07:59:03.994Z,6664.00
2022-11-05T07:59:59.064Z,6873.00
2022-11-05T08:00:54.314Z,7153.00
2022-11-05T08:01:50.133Z,7523.00
2022-11-05T08:02:45.740Z,7909.00
2022-11-05T08:03:40.969Z,8274.00
2022-11-05T08:04:36.487Z,8378.00
2022-11-05T08:05:32.155Z,8551.00
2022-11-05T08:06:27.516Z,8732.00
2022-11-05T08:07:23.327Z,8849.00
2022-11-05T08:08:18.699Z,9381.00
2022-11-05T08:09:14.269Z,9272.00
2022-11-05T08:10:09.943Z,9838.00
2022-11-05T08:11:05.308Z,10003.00
2022-11-05T08:12:03.148Z,10177.00
2022-11-05T08:12:57.074Z,10601.00
2022-11-05T08:13:52.522Z,10904.00
2022-11-05T08:14:48.210Z,11099.00
2022-11-05T08:15:43.682Z,10971.00
2022-11-05T08:16:39.312Z,10172.00
2022-11-05T08:17:34.811Z,9770.00
2022-11-05T08:18:30.192Z,8913.00
2022-11-05T08:19:25.981Z,9108.00
2022-11-05T08:20:21.362Z,9771.00
2022-11-05T08:21:16.874Z,9984.00
2022-11-05T08:22:12.589Z,10097.00
2022-11-05T08:23:08.145Z,10251.00
2022-11-05T08:24:03.438Z,10087.00
2022-11-05T08:25:04.072Z,9699.00
2022-11-05T08:25:56.757Z,8644.00
2022-11-05T08:26:51.319Z,7851.00
2022-11-05T08:27:46.688Z,6863.00
2022-11-05T08:28:42.078Z,6188.00
2022-11-05T08:29:37.877Z,5848.00
2022-11-05T08:30:33.292Z,5501.00
2022-11-05T08:31:28.968Z,5335.00
2022-11-05T08:32:24.485Z,4870.00
2022-11-05T08:33:19.750Z,4688.00
2022-11-05T08:34:15.542Z,4294.00
2022-11-05T08:35:11.324Z,3701.00
2022-11-05T08:36:06.444Z,3602.00
2022-11-05T08:37:03.151Z,3244.00
2022-11-05T08:37:58.525Z,2967.00
2022-11-05T08:38:54.314Z,2686.00
2022-11-05T08:39:49.704Z,2788.00
2022-11-05T08:40:45.130Z,2840.00
2022-11-05T08:41:40.924Z,3124.00
2022-11-05T08:42:36.395Z,3473.00
2022-11-05T08:43:32.050Z,3321.00
2022-11-05T08:44:27.584Z,3223.00
2022-11-05T08:45:22.909Z,3381.00
2022-11-05T08:46:18.614Z,3482.00
2022-11-05T08:47:14.002Z,3862.00
2022-11-05T08:48:09.422Z,4210.00
2022-11-05T08:49:08.792Z,4440.00
2022-11-05T08:50:04.301Z,4389.00
2022-11-05T08:51:00.164Z,4424.00
2022-11-05T08:51:55.270Z,4375.00
2022-11-05T08:52:51.218Z,4471.00
2022-11-05T08:53:46.116Z,4418.00
2022-11-05T08:54:41.097Z,4503.00
2022-11-05T08:55:36.310Z,4677.00
2022-11-05T08:56:31.438Z,5015.00
2022-11-05T08:57:26.417Z,5232.00
2022-11-05T08:58:21.528Z,5422.00
2022-11-05T08:59:16.830Z,5834.00
2022-11-05T09:00:11.781Z,6582.00
2022-11-05T09:01:12.789Z,7568.00
2022-11-05T09:02:08.011Z,7716.00
2022-11-05T09:03:03.356Z,7427.00
2022-11-05T09:03:59.216Z,6846.00
2022-11-05T09:04:54.590Z,6589.00
2022-11-05T09:05:49.979Z,6413.00
2022-11-05T09:06:45.365Z,6250.00
2022-11-05T09:07:40.726Z,6775.00
2022-11-05T09:08:35.827Z,6736.00
2022-11-05T09:09:30.932Z,6288.00
2022-11-05T09:10:26.138Z,5285.00
2022-11-05T09:11:21.310Z,4598.00
2022-11-05T09:12:16.252Z,3978.00
2022-11-05T09:13:17.917Z,3666.00
2022-11-05T09:14:07.356Z,3359.00
2022-11-05T09:15:01.382Z,3078.00
2022-11-05T09:15:56.496Z,2892.00
2022-11-05T09:16:51.477Z,2584.00
2022-11-05T09:17:46.547Z,2289.00
2022-11-05T09:18:41.671Z,2012.00
2022-11-05T09:19:39.846Z,2038.00
2022-11-05T09:20:31.926Z,2317.00
2022-11-05T09:21:26.772Z,2583.00
2022-11-05T09:22:21.880Z,2917.00
2022-11-05T09:23:17.285Z,3648.00
2022-11-05T09:24:12.405Z,3924.00
2022-11-05T09:25:07.479Z,4138.00
2022-11-05T09:26:02.610Z,4354.00
2022-11-05T09:26:57.583Z,4629.00
2022-11-05T09:27:52.674Z,4702.00
2022-11-05T09:28:47.653Z,4554.00
2022-11-05T09:29:42.900Z,4611.00
2022-11-05T09:30:38.164Z,4622.00
2022-11-05T09:31:33.133Z,4724.00
2022-11-05T09:32:28.203Z,5069.00
2022-11-05T09:33:23.292Z,5334.00
2022-11-05T09:34:18.341Z,5811.00
2022-11-05T09:35:13.424Z,5753.00
2022-11-05T09:36:10.706Z,5252.00
2022-11-05T09:37:05.790Z,4856.00
2022-11-05T09:38:01.233Z,5303.00
2022-11-05T09:38:55.815Z,6090.00
2022-11-05T09:39:50.896Z,6954.00
2022-11-05T09:40:46.018Z,7876.00
2022-11-05T09:41:40.983Z,8328.00
2022-11-05T09:42:36.357Z,9015.00
2022-11-05T09:43:32.236Z,8814.00
2022-11-05T09:44:27.207Z,8145.00
2022-11-05T09:45:22.240Z,7716.00
2022-11-05T09:46:17.206Z,7209.00
2022-11-05T09:47:12.268Z,6919.00
2022-11-05T09:48:07.385Z,6705.00
2022-11-05T09:49:02.459Z,6585.00
2022-11-05T09:49:57.677Z,6654.00
2022-11-05T09:50:52.932Z,6816.00
2022-11-05T09:51:47.892Z,6862.00
2022-11-05T09:52:42.997Z,6605.00
2022-11-05T09:53:38.096Z,6497.00
2022-11-05T09:54:33.063Z,6638.00
2022-11-05T09:55:28.131Z,6807.00
2022-11-05T09:56:23.406Z,6689.00
2022-11-05T09:57:18.960Z,6715.00
2022-11-05T09:58:14.503Z,6669.00
2022-11-05T09:59:13.857Z,6649.00
2022-11-05T10:00:09.249Z,6959.00
2022-11-05T10:01:04.750Z,8456.00
2022-11-05T10:02:00.293Z,9345.00
2022-11-05T10:02:55.621Z,9186.00
2022-11-05T10:03:51.072Z,9956.00
2022-11-05T10:04:46.549Z,10712.00
2022-11-05T10:05:42.095Z,11586.00
2022-11-05T10:06:37.607Z,13247.00
2022-11-05T10:07:33.068Z,14161.00
2022-11-05T10:08:28.660Z,15392.00
2022-11-05T10:09:24.020Z,17800.00
2022-11-05T10:10:19.537Z,16688.00
2022-11-05T10:11:15.052Z,14774.00
2022-11-05T10:12:10.583Z,13157.00
2022-11-05T10:13:06.171Z,12478.00
2022-11-05T10:14:01.755Z,11825.00
2022-11-05T10:14:57.173Z,11527.00
2022-11-05T10:15:52.688Z,11482.00
2022-11-05T10:16:48.450Z,11410.00
2022-11-05T10:17:43.681Z,11418.00
2022-11-05T10:18:38.739Z,11050.00
2022-11-05T10:19:33.818Z,10563.00
2022-11-05T10:20:28.931Z,10467.00
2022-11-05T10:21:44.356Z,10295.00
2022-11-05T10:22:20.100Z,10134.00
2022-11-05T10:23:14.283Z,10067.00
2022-11-05T10:24:09.146Z,10142.00
2022-11-05T10:25:04.434Z,9202.00
2022-11-05T10:25:59.303Z,9304.00
2022-11-05T10:26:54.323Z,8885.00
2022-11-05T10:27:49.354Z,8978.00
2022-11-05T10:28:44.416Z,9098.00
2022-11-05T10:29:39.432Z,9330.00
2022-11-05T10:30:34.868Z,8868.00
2022-11-05T10:31:35.563Z,8096.00
2022-11-05T10:32:29.624Z,7180.00
2022-11-05T10:33:24.915Z,6514.00
2022-11-05T10:34:20.360Z,6222.00
2022-11-05T10:35:15.831Z,6203.00
2022-11-05T10:36:11.284Z,10536.00
2022-11-05T10:37:06.802Z,11216.00
2022-11-05T10:38:02.401Z,10975.00
2022-11-05T10:38:57.894Z,11972.00
2022-11-05T10:39:53.394Z,11287.00
2022-11-05T10:40:49.028Z,10111.00
2022-11-05T10:41:44.509Z,10192.00
2022-11-05T10:42:39.957Z,9598.00
2022-11-05T10:43:35.373Z,9049.00
2022-11-05T10:44:30.792Z,9025.00
2022-11-05T10:45:25.839Z,9042.00
2022-11-05T10:46:21.043Z,8148.00
2022-11-05T10:47:15.909Z,8952.00
2022-11-05T10:48:11.114Z,5735.00
2022-11-05T10:49:06.145Z,10103.00
2022-11-05T10:50:01.245Z,10208.00
2022-11-05T10:50:56.326Z,10948.00
2022-11-05T10:51:51.540Z,11930.00
2022-11-05T10:52:46.502Z,11342.00
2022-11-05T10:53:41.586Z,11736.00
2022-11-05T10:54:37.884Z,12231.00
2022-11-05T10:55:32.890Z,12369.00
2022-11-05T10:56:27.956Z,11938.00
2022-11-05T10:57:23.050Z,12271.00
2022-11-05T10:58:18.902Z,14737.00
2022-11-05T10:59:14.372Z,16824.00
2022-11-05T11:00:10.017Z,14879.00
2022-11-05T11:01:05.658Z,13999.00
2022-11-05T11:02:01.126Z,11538.00
2022-11-05T11:02:56.548Z,8364.00
2022-11-05T11:03:51.970Z,6454.00
2022-11-05T11:04:47.545Z,5293.00
2022-11-05T11:05:43.042Z,4363.00
2022-11-05T11:06:38.327Z,3929.00
2022-11-05T11:07:33.782Z,3521.00
2022-11-05T11:08:29.734Z,3301.00
2022-11-05T11:09:24.590Z,3353.00
2022-11-05T11:10:20.048Z,3214.00
2022-11-05T11:11:15.472Z,3339.00
2022-11-05T11:12:10.210Z,3577.00
2022-11-05T11:13:05.229Z,3955.00
2022-11-05T11:14:00.250Z,4171.00
2022-11-05T11:14:55.601Z,4363.00
2022-11-05T11:15:50.347Z,4495.00
2022-11-05T11:16:45.418Z,4610.00
2022-11-05T11:17:43.298Z,4834.00
2022-11-05T11:18:40.204Z,5130.00
2022-11-05T11:19:34.044Z,5206.00
2022-11-05T11:20:29.652Z,5232.00
2022-11-05T11:21:24.939Z,5000.00
2022-11-05T11:22:20.408Z,4588.00
2022-11-05T11:23:16.129Z,4312.00
2022-11-05T11:24:11.315Z,4033.00
2022-11-05T11:25:06.775Z,3708.00
2022-11-05T11:26:02.228Z,3557.00
2022-11-05T11:26:57.795Z,3457.00
2022-11-05T11:27:53.224Z,3552.00
2022-11-05T11:28:48.733Z,3718.00
2022-11-05T11:29:49.106Z,3877.00
2022-11-05T11:30:40.648Z,4041.00
2022-11-05T11:31:35.266Z,4151.00
2022-11-05T11:32:30.749Z,4232.00
2022-11-05T11:33:26.164Z,4423.00
2022-11-05T11:34:21.743Z,4450.00
2022-11-05T11:35:17.185Z,4503.00
2022-11-05T11:36:12.781Z,4387.00
2022-11-05T11:37:08.092Z,4208.00
2022-11-05T11:38:03.515Z,3911.00
2022-11-05T11:38:59.101Z,3727.00
2022-11-05T11:39:58.255Z,3564.00
2022-11-05T11:40:53.681Z,3348.00
2022-11-05T11:41:49.107Z,3178.00
2022-11-05T11:42:44.581Z,3065.00
2022-11-05T11:43:40.000Z,2970.00